createdAt,value
2023-05-02T00:01:22.860Z,101155.25
2023-05-02T00:03:50.592Z,101157.47
2023-05-02T00:06:20.842Z,101149.81
2023-05-02T00:08:49.575Z,101146.63
2023-05-02T00:11:17.382Z,101138.41
2023-05-02T00:13:44.654Z,101141.50
2023-05-02T00:16:11.763Z,101149.91
2023-05-02T00:18:39.184Z,101145.09
2023-05-02T00:21:06.747Z,101148.00
2023-05-02T00:23:35.822Z,101143.22
2023-05-02T00:26:02.524Z,101143.66
2023-05-02T00:28:29.842Z,101151.63
2023-05-02T00:30:57.455Z,101155.84
2023-05-02T00:33:25.732Z,101151.22
2023-05-02T00:35:53.372Z,101149.72
2023-05-02T00:38:21.193Z,101144.44
2023-05-02T00:40:51.396Z,101139.44
2023-05-02T00:43:18.990Z,101149.56
2023-05-02T00:45:46.750Z,101145.19
2023-05-02T00:48:14.166Z,101148.28
2023-05-02T00:50:43.246Z,101151.00
2023-05-02T00:53:11.213Z,101150.22
2023-05-02T00:55:39.078Z,101145.13
2023-05-02T00:58:11.651Z,101143.00
2023-05-02T01:00:59.038Z,101143.13
2023-05-02T01:03:37.683Z,101148.88
2023-05-02T01:06:20.141Z,101159.25
2023-05-02T01:08:56.399Z,101158.22
2023-05-02T01:11:32.579Z,101157.56
2023-05-02T01:14:04.223Z,101156.63
2023-05-02T01:16:33.141Z,101154.44
2023-05-02T01:19:03.748Z,101155.19
2023-05-02T01:21:31.886Z,101152.06
2023-05-02T01:24:07.377Z,101157.34
2023-05-02T01:26:46.447Z,101157.19
2023-05-02T01:29:17.890Z,101161.34
2023-05-02T01:31:49.937Z,101159.88
2023-05-02T01:34:20.520Z,101152.06
2023-05-02T01:36:50.646Z,101159.09
2023-05-02T01:39:22.063Z,101153.59
2023-05-02T01:41:52.048Z,101146.31
2023-05-02T01:44:22.929Z,101149.75
2023-05-02T01:46:53.338Z,101148.13
2023-05-02T01:49:23.517Z,101158.81
2023-05-02T01:51:52.204Z,101154.84
2023-05-02T01:54:23.350Z,101160.50
2023-05-02T01:56:52.026Z,101151.94
2023-05-02T01:59:24.187Z,101150.78
2023-05-02T02:01:52.895Z,101141.25
2023-05-02T02:04:22.108Z,101152.97
2023-05-02T02:06:55.850Z,101152.31
2023-05-02T02:09:23.200Z,101159.13
2023-05-02T02:11:57.806Z,101165.97
2023-05-02T02:14:33.820Z,101167.47
2023-05-02T02:17:05.551Z,101158.59
2023-05-02T02:19:33.904Z,101166.69
2023-05-02T02:22:03.696Z,101154.47
2023-05-02T02:24:33.011Z,101157.16
2023-05-02T02:27:00.527Z,101163.91
2023-05-02T02:29:29.985Z,101158.91
2023-05-02T02:31:57.388Z,101162.13
2023-05-02T02:34:24.631Z,101175.28
2023-05-02T02:36:58.374Z,101176.31
2023-05-02T02:39:39.965Z,101177.72
2023-05-02T02:42:13.505Z,101177.13
2023-05-02T02:44:52.786Z,101179.53
2023-05-02T02:47:28.293Z,101184.31
2023-05-02T02:50:12.129Z,101190.66
2023-05-02T02:52:51.001Z,101182.94
2023-05-02T02:55:29.181Z,101181.44
2023-05-02T02:58:00.506Z,101187.47
2023-05-02T03:00:29.852Z,101191.91
2023-05-02T03:02:57.580Z,101190.13
2023-05-02T03:05:25.855Z,101191.53
2023-05-02T03:07:53.572Z,101187.00
2023-05-02T03:10:23.212Z,101197.22
2023-05-02T03:12:50.842Z,101196.81
2023-05-02T03:15:50.865Z,101194.13
2023-05-02T03:18:18.618Z,101194.88
2023-05-02T03:20:46.377Z,101202.81
2023-05-02T03:23:14.071Z,101198.75
2023-05-02T03:25:41.563Z,101204.03
2023-05-02T03:28:08.784Z,101203.75
2023-05-02T03:30:38.114Z,101204.13
2023-05-02T03:33:05.699Z,101204.88
2023-05-02T03:35:33.031Z,101206.03
2023-05-02T03:38:00.523Z,101214.13
2023-05-02T03:40:28.368Z,101218.72
2023-05-02T03:42:55.789Z,101219.75
2023-05-02T03:45:23.167Z,101224.06
2023-05-02T03:47:51.548Z,101227.88
2023-05-02T03:50:19.591Z,101230.47
2023-05-02T03:52:47.078Z,101232.72
2023-05-02T03:55:14.621Z,101236.16
2023-05-02T03:57:41.851Z,101232.25
2023-05-02T04:00:10.882Z,101239.56
2023-05-02T04:02:38.532Z,101237.56
2023-05-02T04:05:08.717Z,101245.41
2023-05-02T04:07:35.818Z,101239.72
2023-05-02T04:10:03.520Z,101238.88
2023-05-02T04:12:31.306Z,101238.22
2023-05-02T04:14:58.679Z,101242.75
2023-05-02T04:17:26.336Z,101236.72
2023-05-02T04:19:53.714Z,101235.88
2023-05-02T04:22:22.313Z,101240.19
2023-05-02T04:24:49.845Z,101238.56
2023-05-02T04:27:17.158Z,101242.91
2023-05-02T04:29:44.556Z,101239.34
2023-05-02T04:32:12.158Z,101244.53
2023-05-02T04:34:40.425Z,101251.91
2023-05-02T04:37:07.743Z,101241.16
2023-05-02T04:39:36.796Z,101248.63
2023-05-02T04:42:04.450Z,101248.41
2023-05-02T04:44:31.964Z,101240.66
2023-05-02T04:46:59.679Z,101246.81
2023-05-02T04:49:27.296Z,101247.66
2023-05-02T04:51:54.874Z,101245.16
2023-05-02T04:54:22.276Z,101245.56
2023-05-02T04:56:52.305Z,101247.84
2023-05-02T04:59:19.322Z,101251.69
2023-05-02T05:01:47.393Z,101243.59
2023-05-02T05:04:14.996Z,101256.13
2023-05-02T05:06:42.526Z,101242.13
2023-05-02T05:09:09.976Z,101247.06
2023-05-02T05:11:37.590Z,101256.03
2023-05-02T05:14:06.559Z,101245.31
2023-05-02T05:16:33.826Z,101240.09
2023-05-02T05:19:01.246Z,101240.34
2023-05-02T05:21:28.715Z,101243.66
2023-05-02T05:23:55.817Z,101248.75
2023-05-02T05:26:22.596Z,101258.31
2023-05-02T05:28:49.921Z,101251.50
2023-05-02T05:31:19.040Z,101257.22
2023-05-02T05:33:46.444Z,101266.59
2023-05-02T05:36:15.085Z,101269.59
2023-05-02T05:38:42.266Z,101283.34
2023-05-02T05:41:11.601Z,101273.31
2023-05-02T05:43:38.811Z,101284.56
2023-05-02T05:46:06.135Z,101286.69
2023-05-02T05:48:35.561Z,101287.66
2023-05-02T05:51:06.534Z,101288.16
2023-05-02T05:53:34.008Z,101297.09
2023-05-02T05:56:09.915Z,101292.50
2023-05-02T05:58:37.720Z,101296.44
2023-05-02T06:01:05.369Z,101286.44
2023-05-02T06:03:32.814Z,101291.72
2023-05-02T06:06:01.900Z,101295.28
2023-05-02T06:08:29.549Z,101288.28
2023-05-02T06:10:57.284Z,101289.38
2023-05-02T06:13:25.222Z,101294.72
2023-05-02T06:15:52.891Z,101304.66
2023-05-02T06:18:20.221Z,101301.22
2023-05-02T06:20:48.129Z,101313.06
2023-05-02T06:23:18.264Z,101310.97
2023-05-02T06:25:45.166Z,101309.56
2023-05-02T06:28:12.330Z,101305.84
2023-05-02T06:30:40.304Z,101311.50
2023-05-02T06:33:09.612Z,101314.81
2023-05-02T06:35:36.992Z,101321.75
2023-05-02T06:38:04.554Z,101332.22
2023-05-02T06:40:35.117Z,101337.91
2023-05-02T06:43:02.308Z,101351.09
2023-05-02T06:45:29.606Z,101355.78
2023-05-02T06:47:56.931Z,101355.63
2023-05-02T06:50:26.435Z,101355.53
2023-05-02T06:52:54.299Z,101365.44
2023-05-02T06:55:21.526Z,101365.31
2023-05-02T06:57:51.262Z,101367.22
2023-05-02T07:00:19.914Z,101371.56
2023-05-02T07:02:48.402Z,101374.38
2023-05-02T07:05:16.281Z,101386.47
2023-05-02T07:07:44.111Z,101395.28
2023-05-02T07:10:12.365Z,101396.50
2023-05-02T07:12:39.684Z,101393.75
2023-05-02T07:15:09.264Z,101398.09
2023-05-02T07:17:36.453Z,101402.47
2023-05-02T07:20:04.411Z,101404.56
2023-05-02T07:22:32.149Z,101405.16
2023-05-02T07:25:01.026Z,101397.25
2023-05-02T07:27:28.532Z,101402.69
2023-05-02T07:29:56.561Z,101405.16
2023-05-02T07:32:26.118Z,101402.16
2023-05-02T07:34:53.744Z,101400.34
2023-05-02T07:37:21.145Z,101400.72
2023-05-02T07:39:48.574Z,101403.53
2023-05-02T07:42:16.069Z,101408.78
2023-05-02T07:44:44.237Z,101412.09
2023-05-02T07:47:11.809Z,101414.63
2023-05-02T07:49:40.780Z,101406.75
2023-05-02T07:52:07.939Z,101410.50
2023-05-02T07:54:34.781Z,101412.19
2023-05-02T07:57:01.508Z,101406.16
2023-05-02T07:59:28.616Z,101403.25
2023-05-02T08:01:56.128Z,101401.88
2023-05-02T08:04:23.770Z,101391.00
2023-05-02T08:06:51.995Z,101391.31
2023-05-02T08:09:19.700Z,101398.31
2023-05-02T08:11:48.164Z,101403.97
2023-05-02T08:14:17.378Z,101401.41
2023-05-02T08:16:46.766Z,101411.59
2023-05-02T08:19:15.640Z,101410.31
2023-05-02T08:21:43.757Z,101399.31
2023-05-02T08:24:13.237Z,101408.41
2023-05-02T08:26:40.891Z,101405.97
2023-05-02T08:29:07.720Z,101410.50
2023-05-02T08:31:35.840Z,101411.66
2023-05-02T08:34:02.926Z,101415.50
2023-05-02T08:36:30.719Z,101411.59
2023-05-02T08:38:58.715Z,101421.44
2023-05-02T08:41:30.048Z,101415.03
2023-05-02T08:43:58.506Z,101416.00
2023-05-02T08:46:26.733Z,101405.88
2023-05-02T08:48:55.979Z,101416.09
2023-05-02T08:51:24.843Z,101413.75
2023-05-02T08:53:54.722Z,101412.84
2023-05-02T08:56:21.621Z,101415.59
2023-05-02T08:58:51.720Z,101416.03
2023-05-02T09:01:22.936Z,101423.66
2023-05-02T09:03:51.837Z,101415.59
2023-05-02T09:06:21.805Z,101411.25
2023-05-02T09:08:51.003Z,101414.09
2023-05-02T09:11:19.627Z,101413.50
2023-05-02T09:13:47.330Z,101411.34
2023-05-02T09:16:18.164Z,101418.75
2023-05-02T09:18:46.675Z,101420.22
2023-05-02T09:21:19.010Z,101425.31
2023-05-02T09:23:49.097Z,101427.69
2023-05-02T09:26:20.445Z,101437.41
2023-05-02T09:28:49.802Z,101430.53
2023-05-02T09:31:43.785Z,101445.88
2023-05-02T09:34:14.386Z,101456.75
2023-05-02T09:36:43.467Z,101459.13
2023-05-02T09:39:11.974Z,101451.56
2023-05-02T09:41:42.775Z,101455.94
2023-05-02T09:44:12.715Z,101458.13
2023-05-02T09:46:46.440Z,101454.41
2023-05-02T09:49:14.295Z,101461.34
2023-05-02T09:51:41.901Z,101470.94
2023-05-02T09:54:10.280Z,101475.81
2023-05-02T09:56:53.594Z,101477.38
2023-05-02T09:59:20.689Z,101483.41
2023-05-02T10:01:56.182Z,101480.16
2023-05-02T10:04:24.760Z,101485.72
2023-05-02T10:06:55.490Z,101480.94
2023-05-02T10:09:24.103Z,101480.94
2023-05-02T10:11:53.793Z,101488.97
2023-05-02T10:14:21.935Z,101492.75
2023-05-02T10:16:58.646Z,101500.16
2023-05-02T10:19:31.863Z,101493.56
2023-05-02T10:22:00.197Z,101499.06
2023-05-02T10:24:29.579Z,101498.44
2023-05-02T10:26:56.710Z,101498.59
2023-05-02T10:29:24.790Z,101489.44
2023-05-02T10:31:54.225Z,101497.56
2023-05-02T10:34:22.584Z,101497.91
2023-05-02T10:36:50.155Z,101499.88
2023-05-02T10:39:20.449Z,101504.75
2023-05-02T10:41:48.076Z,101500.09
2023-05-02T10:44:16.867Z,101498.16
2023-05-02T10:46:45.053Z,101496.31
2023-05-02T10:49:15.177Z,101497.97
2023-05-02T10:51:45.225Z,101490.47
2023-05-02T10:54:31.139Z,101482.03
2023-05-02T10:57:07.740Z,101496.00
2023-05-02T10:59:37.370Z,101497.03
2023-05-02T11:02:07.136Z,101506.56
2023-05-02T11:05:00.801Z,101509.66
2023-05-02T11:07:28.081Z,101509.66
2023-05-02T11:10:28.787Z,101508.94
2023-05-02T11:12:57.858Z,101516.81
2023-05-02T11:15:56.670Z,101516.81
2023-05-02T11:18:23.865Z,101525.22
2023-05-02T11:21:25.822Z,101517.59
2023-05-02T11:23:52.693Z,101513.31
2023-05-02T11:26:22.988Z,101516.00
2023-05-02T11:28:52.065Z,101520.66
2023-05-02T11:32:01.589Z,101528.94
2023-05-02T11:34:29.116Z,101526.47
2023-05-02T11:36:57.937Z,101523.63
2023-05-02T11:39:24.611Z,101524.03
2023-05-02T11:41:52.148Z,101528.72
2023-05-02T11:44:18.907Z,101536.56
2023-05-02T11:46:46.946Z,101530.13
2023-05-02T11:49:15.263Z,101520.34
2023-05-02T11:51:44.214Z,101516.25
2023-05-02T11:54:21.301Z,101514.53
2023-05-02T11:56:48.557Z,101517.59
2023-05-02T11:59:15.625Z,101511.59
2023-05-02T12:01:49.433Z,101505.44
2023-05-02T12:04:16.946Z,101505.72
2023-05-02T12:06:55.909Z,101505.13
2023-05-02T12:09:25.359Z,101496.47
2023-05-02T12:11:53.130Z,101501.59
2023-05-02T12:14:28.073Z,101493.13
2023-05-02T12:16:55.707Z,101489.59
2023-05-02T12:19:23.756Z,101496.66
2023-05-02T12:21:51.423Z,101500.03
2023-05-02T12:24:19.067Z,101500.00
2023-05-02T12:26:48.259Z,101495.25
2023-05-02T12:29:16.541Z,101507.06
2023-05-02T12:31:52.791Z,101503.94
2023-05-02T12:34:33.468Z,101494.19
2023-05-02T12:37:01.967Z,101501.94
2023-05-02T12:39:36.371Z,101509.66
2023-05-02T12:42:12.885Z,101502.03
2023-05-02T12:44:45.010Z,101500.28
2023-05-02T12:47:14.074Z,101496.91
2023-05-02T12:49:52.475Z,101500.06
2023-05-02T12:52:20.881Z,101501.63
2023-05-02T12:54:49.008Z,101501.06
2023-05-02T12:57:26.366Z,101501.72
2023-05-02T12:59:54.142Z,101511.00
2023-05-02T13:02:22.544Z,101505.13
2023-05-02T13:04:49.633Z,101507.38
2023-05-02T13:07:17.221Z,101504.88
2023-05-02T13:09:44.600Z,101503.75
2023-05-02T13:12:12.876Z,101513.13
2023-05-02T13:14:42.905Z,101515.66
2023-05-02T13:17:10.528Z,101523.09
2023-05-02T13:19:40.561Z,101511.00
2023-05-02T13:22:12.285Z,101519.06
2023-05-02T13:24:39.660Z,101509.91
2023-05-02T13:27:07.419Z,101518.44
2023-05-02T13:29:34.481Z,101517.44
2023-05-02T13:32:03.731Z,101523.34
2023-05-02T13:34:31.652Z,101517.81
2023-05-02T13:36:58.644Z,101517.38
2023-05-02T13:39:26.671Z,101531.66
2023-05-02T13:41:54.674Z,101523.19
2023-05-02T13:44:23.003Z,101514.03
2023-05-02T13:46:52.154Z,101523.06
2023-05-02T13:49:20.740Z,101516.75
2023-05-02T13:51:48.670Z,101516.56
2023-05-02T13:54:16.583Z,101522.09
2023-05-02T13:56:44.152Z,101521.97
2023-05-02T13:59:11.885Z,101521.00
2023-05-02T14:01:39.511Z,101520.41
2023-05-02T14:04:07.015Z,101512.28
2023-05-02T14:06:37.000Z,101503.41
2023-05-02T14:09:08.663Z,101519.75
2023-05-02T14:11:35.701Z,101521.50
2023-05-02T14:14:03.467Z,101520.19
2023-05-02T14:16:31.171Z,101510.38
2023-05-02T14:18:59.138Z,101515.69
2023-05-02T14:21:26.515Z,101513.03
2023-05-02T14:23:55.595Z,101509.16
2023-05-02T14:26:22.615Z,101509.44
2023-05-02T14:28:49.540Z,101512.13
2023-05-02T14:31:17.210Z,101512.66
2023-05-02T14:33:45.140Z,101520.28
2023-05-02T14:36:12.791Z,101493.50
2023-05-02T14:38:40.372Z,101503.13
2023-05-02T14:41:08.577Z,101491.13
2023-05-02T14:43:35.878Z,101489.44
2023-05-02T14:46:02.976Z,101493.75
2023-05-02T14:48:30.662Z,101481.75
2023-05-02T14:50:57.969Z,101487.06
2023-05-02T14:53:25.389Z,101486.84
2023-05-02T14:55:52.814Z,101484.53
2023-05-02T14:58:22.480Z,101480.47
2023-05-02T15:00:50.067Z,101472.84
2023-05-02T15:03:17.955Z,101474.66
2023-05-02T15:05:45.541Z,101477.28
2023-05-02T15:08:12.365Z,101475.13
2023-05-02T15:10:40.514Z,101477.81
2023-05-02T15:13:09.196Z,101465.88
2023-05-02T15:15:37.738Z,101470.97
2023-05-02T15:18:05.688Z,101465.59
2023-05-02T15:20:33.169Z,101456.38
2023-05-02T15:23:01.619Z,101466.88
2023-05-02T15:25:29.722Z,101452.94
2023-05-02T15:27:57.148Z,101457.22
2023-05-02T15:30:25.031Z,101461.31
2023-05-02T15:32:54.212Z,101453.34
2023-05-02T15:35:21.849Z,101463.25
2023-05-02T15:37:48.950Z,101452.25
2023-05-02T15:40:16.931Z,101452.63
2023-05-02T15:42:44.362Z,101451.88
2023-05-02T15:45:12.605Z,101454.22
2023-05-02T15:47:41.055Z,101461.00
2023-05-02T15:50:11.590Z,101458.38
2023-05-02T15:52:39.495Z,101465.16
2023-05-02T15:55:06.892Z,101463.47
2023-05-02T15:57:34.504Z,101456.47
2023-05-02T16:00:02.248Z,101453.72
2023-05-02T16:02:29.763Z,101441.41
2023-05-02T16:04:56.615Z,101451.00
2023-05-02T16:07:25.987Z,101445.63
2023-05-02T16:09:53.348Z,101446.03
2023-05-02T16:12:20.799Z,101444.41
2023-05-02T16:14:48.503Z,101445.72
2023-05-02T16:17:15.768Z,101445.84
2023-05-02T16:19:43.328Z,101437.31
2023-05-02T16:22:10.726Z,101424.06
2023-05-02T16:24:39.905Z,101432.25
2023-05-02T16:27:07.850Z,101428.75
2023-05-02T16:29:35.368Z,101430.22
2023-05-02T16:32:02.909Z,101427.72
2023-05-02T16:34:32.032Z,101422.28
2023-05-02T16:37:00.325Z,101416.22
2023-05-02T16:39:29.115Z,101412.69
2023-05-02T16:41:58.202Z,101413.91
2023-05-02T16:44:25.424Z,101408.59
2023-05-02T16:46:52.896Z,101398.66
2023-05-02T16:49:20.237Z,101403.88
2023-05-02T16:51:47.251Z,101406.47
2023-05-02T16:54:14.657Z,101413.34
2023-05-02T16:56:42.703Z,101400.94
2023-05-02T16:59:15.040Z,101403.94
2023-05-02T17:01:42.178Z,101410.56
2023-05-02T17:04:09.212Z,101411.28
2023-05-02T17:06:36.857Z,101417.91
2023-05-02T17:09:04.135Z,101405.31
2023-05-02T17:11:31.250Z,101403.13
2023-05-02T17:13:58.409Z,101413.69
2023-05-02T17:16:27.246Z,101412.84
2023-05-02T17:18:55.554Z,101411.66
2023-05-02T17:21:23.374Z,101409.94
2023-05-02T17:23:50.936Z,101402.75
2023-05-02T17:26:18.270Z,101399.38
2023-05-02T17:28:46.005Z,101406.13
2023-05-02T17:31:13.750Z,101384.34
2023-05-02T17:33:42.875Z,101388.88
2023-05-02T17:36:14.565Z,101390.38
2023-05-02T17:38:41.891Z,101394.41
2023-05-02T17:41:08.898Z,101404.97
2023-05-02T17:43:36.927Z,101406.38
2023-05-02T17:46:07.341Z,101408.09
2023-05-02T17:48:34.318Z,101407.91
2023-05-02T17:51:03.220Z,101407.34
2023-05-02T17:53:30.450Z,101418.41
2023-05-02T17:55:57.579Z,101413.69
2023-05-02T17:58:24.268Z,101412.88
2023-05-02T18:00:51.215Z,101413.28
2023-05-02T18:03:18.481Z,101414.31
2023-05-02T18:05:49.228Z,101404.34
2023-05-02T18:08:22.510Z,101406.28
2023-05-02T18:10:50.003Z,101402.47
2023-05-02T18:13:17.330Z,101397.81
2023-05-02T18:15:44.113Z,101400.38
2023-05-02T18:18:11.193Z,101397.06
2023-05-02T18:20:39.111Z,101403.41
2023-05-02T18:23:06.219Z,101404.88
2023-05-02T18:25:35.588Z,101402.09
2023-05-02T18:28:02.336Z,101400.34
2023-05-02T18:30:29.344Z,101390.97
2023-05-02T18:32:56.860Z,101399.50
2023-05-02T18:35:24.167Z,101397.50
2023-05-02T18:37:54.903Z,101407.75
2023-05-02T18:40:22.493Z,101399.16
2023-05-02T18:42:51.440Z,101409.53
2023-05-02T18:45:19.130Z,101408.88
2023-05-02T18:47:46.463Z,101411.19
2023-05-02T18:50:13.978Z,101417.84
2023-05-02T18:52:41.553Z,101421.09
2023-05-02T18:55:08.953Z,101430.22
2023-05-02T18:57:36.499Z,101429.59
2023-05-02T19:00:07.018Z,101432.56
2023-05-02T19:02:34.895Z,101437.16
2023-05-02T19:05:05.801Z,101439.25
2023-05-02T19:07:34.638Z,101432.44
2023-05-02T19:10:02.427Z,101439.63
2023-05-02T19:12:31.331Z,101440.06
2023-05-02T19:14:58.855Z,101439.16
2023-05-02T19:17:27.968Z,101439.94
2023-05-02T19:19:58.152Z,101434.97
2023-05-02T19:22:25.604Z,101434.78
2023-05-02T19:24:53.434Z,101439.97
2023-05-02T19:27:21.125Z,101442.09
2023-05-02T19:29:48.889Z,101446.25
2023-05-02T19:32:16.260Z,101445.59
2023-05-02T19:34:45.397Z,101445.19
2023-05-02T19:37:12.852Z,101456.34
2023-05-02T19:39:40.082Z,101446.66
2023-05-02T19:42:07.448Z,101445.53
2023-05-02T19:44:34.145Z,101454.16
2023-05-02T19:47:01.269Z,101455.03
2023-05-02T19:49:28.730Z,101454.03
2023-05-02T19:51:57.388Z,101452.69
2023-05-02T19:54:24.533Z,101453.41
2023-05-02T19:56:52.362Z,101462.44
2023-05-02T19:59:21.013Z,101466.50
2023-05-02T20:01:48.217Z,101450.81
2023-05-02T20:04:15.953Z,101447.50
2023-05-02T20:06:43.169Z,101447.22
2023-05-02T20:09:12.291Z,101459.00
2023-05-02T20:11:39.983Z,101458.13
2023-05-02T20:14:07.597Z,101464.88
2023-05-02T20:16:35.378Z,101462.31
2023-05-02T20:19:03.338Z,101467.16
2023-05-02T20:21:30.886Z,101462.53
2023-05-02T20:23:58.404Z,101464.63
2023-05-02T20:26:27.710Z,101473.69
2023-05-02T20:28:55.075Z,101472.13
2023-05-02T20:31:22.623Z,101468.06
2023-05-02T20:33:50.330Z,101472.53
2023-05-02T20:36:17.635Z,101466.63
2023-05-02T20:38:47.415Z,101470.91
2023-05-02T20:41:14.782Z,101477.31
2023-05-02T20:43:43.538Z,101470.09
2023-05-02T20:46:11.288Z,101489.88
2023-05-02T20:48:39.106Z,101484.56
2023-05-02T20:51:06.334Z,101488.53
2023-05-02T20:53:34.802Z,101484.09
2023-05-02T20:56:02.266Z,101487.72
2023-05-02T20:58:29.452Z,101488.47
2023-05-02T21:00:58.859Z,101497.44
2023-05-02T21:03:28.121Z,101496.13
2023-05-02T21:05:56.832Z,101489.31
2023-05-02T21:08:24.324Z,101489.97
2023-05-02T21:10:53.616Z,101491.75
2023-05-02T21:13:21.058Z,101486.84
2023-05-02T21:15:48.865Z,101486.84
2023-05-02T21:18:18.705Z,101482.81
2023-05-02T21:20:48.982Z,101483.28
2023-05-02T21:23:15.952Z,101494.34
2023-05-02T21:25:43.666Z,101493.03
2023-05-02T21:28:11.377Z,101489.16
2023-05-02T21:30:39.436Z,101483.00
2023-05-02T21:33:07.298Z,101481.56
2023-05-02T21:35:36.130Z,101476.53
2023-05-02T21:38:03.763Z,101474.94
2023-05-02T21:40:31.245Z,101458.50
2023-05-02T21:42:58.651Z,101460.56
2023-05-02T21:45:25.926Z,101463.13
2023-05-02T21:47:53.456Z,101457.66
2023-05-02T21:50:21.193Z,101450.69
2023-05-02T21:52:49.982Z,101448.88
2023-05-02T21:55:17.335Z,101451.31
2023-05-02T21:57:45.000Z,101452.53
2023-05-02T22:00:14.061Z,101452.06
2023-05-02T22:02:41.491Z,101459.63
2023-05-02T22:05:09.367Z,101456.41
2023-05-02T22:07:36.807Z,101456.91
2023-05-02T22:10:06.815Z,101455.75
2023-05-02T22:12:34.285Z,101458.59
2023-05-02T22:15:08.836Z,101461.41
2023-05-02T22:17:35.906Z,101475.34
2023-05-02T22:20:03.921Z,101462.09
2023-05-02T22:22:30.894Z,101465.03
2023-05-02T22:24:58.196Z,101470.25
2023-05-02T22:27:27.432Z,101476.19
2023-05-02T22:29:55.227Z,101472.75
2023-05-02T22:32:23.100Z,101465.09
2023-05-02T22:34:50.431Z,101463.75
2023-05-02T22:37:17.852Z,101478.06
2023-05-02T22:39:45.350Z,101482.25
2023-05-02T22:42:12.591Z,101469.81
2023-05-02T22:44:53.258Z,101477.50
2023-05-02T22:47:22.017Z,101476.25
2023-05-02T22:49:49.147Z,101480.47
2023-05-02T22:52:16.574Z,101489.50
2023-05-02T22:54:45.095Z,101494.06
2023-05-02T22:57:12.509Z,101492.53
2023-05-02T22:59:41.411Z,101497.63
2023-05-02T23:02:10.392Z,101493.75
2023-05-02T23:04:37.879Z,101502.28
2023-05-02T23:07:05.188Z,101496.31
2023-05-02T23:09:32.830Z,101501.88
2023-05-02T23:12:00.073Z,101501.00
2023-05-02T23:14:27.894Z,101494.88
2023-05-02T23:16:56.924Z,101497.22
2023-05-02T23:19:24.679Z,101501.13
2023-05-02T23:21:52.740Z,101499.91
2023-05-02T23:24:19.838Z,101498.09
2023-05-02T23:26:47.183Z,101499.31
2023-05-02T23:29:14.670Z,101511.72
2023-05-02T23:31:42.755Z,101508.50
2023-05-02T23:34:12.721Z,101510.56
2023-05-02T23:36:39.556Z,101508.63
2023-05-02T23:39:06.778Z,101515.38
2023-05-02T23:41:34.449Z,101521.09
2023-05-02T23:44:01.782Z,101528.53
2023-05-02T23:46:28.978Z,101530.91
2023-05-02T23:48:56.156Z,101531.94
2023-05-02T23:51:25.863Z,101531.94
2023-05-02T23:53:52.648Z,101538.09
2023-05-02T23:56:19.886Z,101539.13
2023-05-02T23:58:48.432Z,101536.94
